Time;durP1;ratioP1;P1;durP2;ratioP2;P2;SDS_P1;SDS_P2;PMS_P1;PMS_P2;Temp;Humidity;BMP_temperature;BMP_pressure;BME280_temperature;BME280_humidity;BME280_pressure;Samples;Min_cycle;Max_cycle;Signal;HPM_P1;HPM_P2
2023/11/13 00:04:47;;;;;;;13.75;8.63;;;;;;;2.81;89.06;99809.50;10479664;28;20045;-78
2023/11/13 00:09:51;;;;;;;14.35;8.00;;;;;;;2.80;89.06;99791.88;10506726;28;20127;-79
2023/11/13 00:14:55;;;;;;;15.35;8.52;;;;;;;2.74;89.56;99794.88;10481423;28;20040;-78
2023/11/13 00:19:58;;;;;;;10.18;7.57;;;;;;;2.73;89.46;99777.25;10484682;28;20043;-79
2023/11/13 00:25:01;;;;;;;11.80;7.88;;;;;;;2.73;89.50;99783.41;10484381;28;20048;-79
2023/11/13 00:30:07;;;;;;;12.73;8.38;;;;;;;2.69;89.43;99779.25;10477836;28;20036;-79
2023/11/13 00:35:10;;;;;;;13.98;8.30;;;;;;;2.66;89.39;99792.69;10489463;28;20381;-79
2023/11/13 00:40:13;;;;;;;16.48;8.38;;;;;;;2.65;89.17;99798.06;10482262;28;20068;-79
2023/11/13 00:45:18;;;;;;;14.20;8.80;;;;;;;2.70;89.11;99782.75;10482967;28;20095;-78
2023/11/13 00:50:21;;;;;;;17.58;8.90;;;;;;;2.60;89.12;99798.31;10490401;28;20048;-78
2023/11/13 00:55:24;;;;;;;12.80;8.48;;;;;;;2.47;89.77;99803.44;10481012;28;20235;-79
2023/11/13 01:00:28;;;;;;;16.52;10.07;;;;;;;2.38;90.40;99778.28;10476498;28;20045;-79
2023/11/13 01:05:33;;;;;;;15.27;10.48;;;;;;;2.28;91.34;99765.69;10483114;28;20154;-80
2023/11/13 01:10:36;;;;;;;14.52;9.10;;;;;;;2.40;90.19;99768.47;10490110;28;20048;-78
2023/11/13 01:15:42;;;;;;;16.02;9.25;;;;;;;2.38;90.31;99778.28;10484224;28;20155;-79
2023/11/13 01:20:46;;;;;;;17.55;10.45;;;;;;;2.40;90.10;99772.91;10481461;28;20048;-78
2023/11/13 01:25:49;;;;;;;13.80;9.10;;;;;;;2.36;90.03;99768.75;10486629;28;20045;-79
2023/11/13 01:30:53;;;;;;;13.20;9.55;;;;;;;2.33;90.26;99761.81;10484376;28;20052;-79
2023/11/13 01:35:57;;;;;;;18.08;9.30;;;;;;;2.35;90.17;99775.81;10481629;28;20078;-79
2023/11/13 01:41:00;;;;;;;16.33;9.48;;;;;;;2.30;90.19;99764.63;10490469;28;20139;-79
2023/11/13 01:46:10;;;;;;;14.43;9.20;;;;;;;2.26;90.76;99743.69;10485227;28;20055;-79
2023/11/13 01:51:14;;;;;;;17.75;10.13;;;;;;;2.29;90.41;99730.28;10482208;28;20061;-79
2023/11/13 01:56:17;;;;;;;17.80;9.30;;;;;;;2.20;90.85;99742.25;10474280;28;20060;-79
2023/11/13 02:01:22;;;;;;;14.90;9.93;;;;;;;2.24;90.74;99748.22;10472023;28;20519;-79
2023/11/13 02:06:26;;;;;;;13.93;9.52;;;;;;;2.15;91.48;99741.66;10483007;28;20037;-79
2023/11/13 02:11:29;;;;;;;19.58;9.80;;;;;;;2.23;90.96;99734.13;10501940;28;20040;-76
2023/11/13 02:16:34;;;;;;;15.68;9.40;;;;;;;2.29;90.79;99746.16;10530649;28;20074;-78
2023/11/13 02:21:39;;;;;;;14.70;9.02;;;;;;;2.29;90.68;99731.13;10498916;28;20123;-75
2023/11/13 02:26:43;;;;;;;16.65;9.07;;;;;;;2.29;90.92;99715.22;10509149;28;20048;-79
2023/11/13 02:31:53;;;;;;;13.18;10.13;;;;;;;2.23;91.14;99720.88;10493888;28;20051;-77
2023/11/13 02:36:57;;;;;;;15.65;9.32;;;;;;;2.27;91.47;99716.25;10501255;28;20131;-78
2023/11/13 02:42:01;;;;;;;15.93;9.35;;;;;;;2.28;91.82;99713.53;10509032;28;20036;-77
2023/11/13 02:47:04;;;;;;;15.98;9.88;;;;;;;2.30;92.16;99708.13;10535000;28;20045;-76
2023/11/13 02:52:07;;;;;;;17.00;9.38;;;;;;;2.34;91.79;99713.16;10491227;28;20109;-80
2023/11/13 02:57:11;;;;;;;16.63;9.90;;;;;;;2.48;91.92;99719.47;10483204;28;20044;-79
2023/11/13 03:02:14;;;;;;;16.73;10.40;;;;;;;2.50;91.60;99717.59;10495853;28;20040;-78
2023/11/13 03:07:17;;;;;;;14.15;9.63;;;;;;;2.49;92.26;99729.97;10491443;28;20044;-78
2023/11/13 03:12:22;;;;;;;15.32;8.82;;;;;;;2.56;92.44;99712.78;10490351;28;20036;-79
2023/11/13 03:17:25;;;;;;;14.52;8.68;;;;;;;2.60;92.48;99701.06;10484559;28;20541;-79
2023/11/13 03:22:28;;;;;;;12.80;8.98;;;;;;;2.67;92.56;99692.75;10483359;28;20045;-78
2023/11/13 03:27:36;;;;;;;13.15;8.90;;;;;;;2.64;93.33;99682.34;10489139;28;20084;-77
2023/11/13 03:32:39;;;;;;;14.82;8.35;;;;;;;2.67;92.91;99687.44;10496394;28;20179;-78
2023/11/13 03:37:43;;;;;;;12.07;8.70;;;;;;;2.76;93.23;99692.19;10487012;28;20076;-78
2023/11/13 03:42:47;;;;;;;16.17;9.30;;;;;;;2.80;93.04;99683.97;10482623;28;20044;-77
2023/11/13 03:47:50;;;;;;;11.93;7.88;;;;;;;2.84;93.13;99697.91;10495474;28;20040;-77
2023/11/13 03:52:53;;;;;;;11.88;8.77;;;;;;;2.83;93.19;99690.91;10477525;28;20676;-79
2023/11/13 03:57:57;;;;;;;14.63;8.35;;;;;;;2.81;92.97;99698.94;10482154;28;20035;-77
2023/11/13 04:08:16;;;;;;;13.63;8.38;;;;;;;2.76;92.98;99701.00;10607626;27;20387;-78
2023/11/13 04:13:20;;;;;;;15.73;8.52;;;;;;;2.88;92.42;99714.47;10561511;28;20044;-79
2023/11/13 04:18:26;;;;;;;15.20;8.23;;;;;;;2.94;92.17;99707.03;10554296;28;20120;-79
2023/11/13 04:23:30;;;;;;;13.95;7.72;;;;;;;2.81;92.68;99690.97;10549713;28;20058;-78
2023/11/13 04:28:33;;;;;;;16.92;8.88;;;;;;;2.96;91.88;99673.31;10562851;28;20127;-78
2023/11/13 04:33:42;;;;;;;11.50;8.07;;;;;;;2.97;91.61;99679.47;10566748;28;20156;-77
2023/11/13 04:38:46;;;;;;;19.48;9.20;;;;;;;3.02;91.10;99672.06;10582465;28;20138;-75
2023/11/13 04:43:49;;;;;;;13.20;7.55;;;;;;;2.95;91.11;99676.88;10599374;28;20084;-75
2023/11/13 04:48:52;;;;;;;15.63;8.80;;;;;;;2.89;91.22;99666.66;10574615;28;20104;-77
2023/11/13 04:53:56;;;;;;;16.00;8.88;;;;;;;2.91;91.13;99666.53;10561899;28;20039;-80
2023/11/13 04:59:00;;;;;;;15.63;9.02;;;;;;;2.89;91.43;99671.97;10560692;28;20119;-79
2023/11/13 05:04:03;;;;;;;16.00;8.73;;;;;;;2.93;90.97;99669.97;10564698;28;20047;-79
2023/11/13 05:09:08;;;;;;;15.90;9.75;;;;;;;2.91;91.13;99672.72;10558556;28;20043;-79
2023/11/13 05:14:11;;;;;;;15.23;9.15;;;;;;;3.03;90.60;99673.78;10557941;28;20388;-79
2023/11/13 05:19:14;;;;;;;14.23;9.23;;;;;;;3.03;90.52;99661.34;10526474;28;20041;-80
2023/11/13 05:24:19;;;;;;;19.02;9.57;;;;;;;3.01;90.60;99659.72;10525930;28;20044;-80
2023/11/13 05:29:23;;;;;;;18.23;10.45;;;;;;;2.92;91.18;99639.09;10527921;28;20036;-79
2023/11/13 05:34:26;;;;;;;17.48;10.18;;;;;;;2.94;91.51;99631.91;10532989;28;20550;-79
2023/11/13 05:39:31;;;;;;;19.25;11.15;;;;;;;3.00;91.34;99627.06;10540557;28;20053;-76
2023/11/13 05:44:36;;;;;;;20.90;12.02;;;;;;;3.03;91.44;99610.09;10570485;28;20064;-77
2023/11/13 05:49:39;;;;;;;20.88;11.68;;;;;;;3.02;92.30;99605.75;10564188;28;20155;-76
2023/11/13 05:54:43;;;;;;;24.15;13.52;;;;;;;3.07;92.52;99587.72;10559774;28;20640;-79
2023/11/13 05:59:47;;;;;;;26.98;14.85;;;;;;;3.10;92.81;99578.69;10558401;28;20032;-76
2023/11/13 06:04:50;;;;;;;25.02;13.70;;;;;;;3.19;92.81;99578.16;10575208;28;20087;-76
2023/11/13 06:09:54;;;;;;;25.30;14.80;;;;;;;3.23;93.01;99567.22;10573174;28;20042;-76
2023/11/13 06:14:57;;;;;;;31.73;14.13;;;;;;;3.24;93.39;99560.13;10564920;28;20055;-75
2023/11/13 06:20:00;;;;;;;26.85;14.60;;;;;;;3.22;94.02;99548.75;10568503;28;20088;-76
2023/11/13 06:25:05;;;;;;;25.00;14.55;;;;;;;3.12;94.95;99545.81;10570544;28;20083;-75
2023/11/13 06:30:12;;;;;;;27.52;14.25;;;;;;;3.16;95.81;99536.72;10569681;28;20040;-77
2023/11/13 06:35:15;;;;;;;28.92;13.93;;;;;;;3.28;94.84;99524.47;10562464;28;20059;-77
2023/11/13 06:40:19;;;;;;;30.08;15.68;;;;;;;3.36;94.58;99506.25;10563139;28;20045;-76
2023/11/13 06:45:22;;;;;;;27.83;15.20;;;;;;;3.38;94.58;99507.00;10558186;28;20411;-75
2023/11/13 06:50:25;;;;;;;28.35;14.27;;;;;;;3.42;94.33;99515.59;10561692;28;20036;-77
2023/11/13 06:55:29;;;;;;;34.58;14.50;;;;;;;3.36;94.63;99514.19;10564563;28;20071;-78
2023/11/13 07:00:32;;;;;;;27.75;15.52;;;;;;;3.47;94.37;99513.50;10568326;28;20048;-77
2023/11/13 07:05:36;;;;;;;28.23;14.80;;;;;;;3.54;94.41;99514.81;10563005;28;20100;-76
2023/11/13 07:10:43;;;;;;;28.98;15.88;;;;;;;3.52;94.98;99499.94;10568321;28;20039;-75
2023/11/13 07:15:46;;;;;;;36.45;15.65;;;;;;;4.36;98.00;99512.81;10554122;28;20048;-76
2023/11/13 07:20:50;;;;;;;38.67;19.13;;;;;;;5.18;93.16;99524.78;10557154;28;20037;-76
2023/11/13 07:25:54;;;;;;;18.33;11.18;;;;;;;5.49;89.10;99515.44;10560851;28;20319;-77
2023/11/13 07:30:57;;;;;;;16.23;10.10;;;;;;;5.88;87.08;99529.41;10560618;28;20043;-75
2023/11/13 07:36:03;;;;;;;18.08;11.80;;;;;;;6.10;84.56;99525.13;10558471;28;20029;-78
2023/11/13 07:41:11;;;;;;;19.38;13.45;;;;;;;6.14;82.08;99529.25;10531731;28;20040;-80
2023/11/13 07:46:14;;;;;;;20.30;12.20;;;;;;;5.59;82.98;99514.72;10524663;28;20032;-78
2023/11/13 07:51:18;;;;;;;25.02;14.43;;;;;;;5.33;85.21;99498.88;10515429;28;20033;-80
2023/11/13 07:56:22;;;;;;;27.77;15.85;;;;;;;5.26;86.64;99489.63;10521536;28;20058;-80
2023/11/13 08:01:26;;;;;;;31.52;17.70;;;;;;;5.16;87.40;99483.28;10537396;28;20105;-78
2023/11/13 08:06:30;;;;;;;30.30;16.33;;;;;;;5.18;88.11;99474.19;10515987;28;20055;-78
2023/11/13 08:11:34;;;;;;;30.45;16.77;;;;;;;5.18;88.68;99462.69;10510566;28;20059;-79
2023/11/13 08:16:37;;;;;;;33.53;17.42;;;;;;;5.21;89.18;99458.03;10507656;28;20511;-79
2023/11/13 08:21:43;;;;;;;32.13;18.80;;;;;;;5.18;90.49;99441.41;10524230;28;20122;-78
2023/11/13 08:26:48;;;;;;;36.47;18.58;;;;;;;5.04;92.46;99445.91;10514122;28;20523;-78
2023/11/13 08:31:52;;;;;;;39.50;20.92;;;;;;;4.93;94.85;99435.19;10518360;28;20075;-78
2023/11/13 08:36:55;;;;;;;50.00;24.10;;;;;;;5.03;96.20;99433.59;10519581;28;20131;-79
2023/11/13 08:42:01;;;;;;;41.40;20.25;;;;;;;5.06;97.89;99425.38;10509991;28;20099;-79
2023/11/13 08:47:05;;;;;;;43.00;19.85;;;;;;;5.17;99.43;99415.75;10514112;28;20060;-78
2023/11/13 08:52:09;;;;;;;37.00;19.25;;;;;;;5.27;100.00;99414.97;10524557;28;20047;-78
2023/11/13 08:57:14;;;;;;;37.40;19.67;;;;;;;5.18;100.00;99386.34;10523373;28;20788;-79
2023/11/13 09:02:23;;;;;;;40.33;19.27;;;;;;;5.16;100.00;99371.47;10532644;28;20529;-77
2023/11/13 09:07:27;;;;;;;38.97;20.33;;;;;;;5.20;100.00;99360.47;10521324;28;20043;-78
2023/11/13 09:12:31;;;;;;;41.10;21.33;;;;;;;5.36;100.00;99372.63;10551071;28;20067;-79
2023/11/13 09:17:35;;;;;;;40.00;19.42;;;;;;;5.32;100.00;99385.34;10525918;28;20403;-79
2023/11/13 09:22:39;;;;;;;46.65;20.85;;;;;;;5.39;100.00;99361.75;10522614;28;20495;-79
2023/11/13 09:27:44;;;;;;;57.40;26.60;;;;;;;5.40;100.00;99372.28;10530356;28;20487;-79
2023/11/13 09:32:49;;;;;;;81.43;29.00;;;;;;;5.46;100.00;99361.16;10524474;28;20044;-77
2023/11/13 09:37:54;;;;;;;44.00;22.33;;;;;;;5.41;100.00;99359.81;10559915;28;20021;-77
2023/11/13 09:43:05;;;;;;;45.13;22.10;;;;;;;5.55;100.00;99356.94;10565721;28;20095;-77
2023/11/13 09:48:10;;;;;;;41.95;18.98;;;;;;;5.58;100.00;99366.53;10569660;28;20036;-77
2023/11/13 09:53:17;;;;;;;44.35;20.60;;;;;;;5.58;100.00;99359.38;10571088;28;20040;-76
2023/11/13 09:58:22;;;;;;;45.30;21.00;;;;;;;5.58;100.00;99358.53;10554574;28;20574;-78
2023/11/13 10:03:25;;;;;;;44.92;21.35;;;;;;;5.45;100.00;99354.13;10531179;28;20047;-79
2023/11/13 10:08:31;;;;;;;44.40;20.35;;;;;;;5.54;100.00;99346.41;10539772;28;20042;-76
2023/11/13 10:13:36;;;;;;;42.33;18.85;;;;;;;5.58;100.00;99343.41;10556407;28;20048;-76
2023/11/13 10:18:39;;;;;;;49.75;19.52;;;;;;;5.68;100.00;99336.41;10561627;28;20028;-77
2023/11/13 10:23:42;;;;;;;40.42;19.02;;;;;;;5.75;100.00;99315.44;10548954;28;20036;-79
2023/11/13 10:28:48;;;;;;;37.88;18.35;;;;;;;5.85;100.00;99299.59;10529767;28;20078;-80
2023/11/13 10:33:59;;;;;;;30.52;16.48;;;;;;;5.90;100.00;99292.94;10535290;28;20055;-80
2023/11/13 10:39:11;;;;;;;28.17;15.80;;;;;;;6.07;100.00;99280.06;10522129;28;20045;-79
2023/11/13 10:44:27;;;;;;;24.83;12.65;;;;;;;6.23;100.00;99264.56;10526705;28;20112;-78
2023/11/13 10:49:30;;;;;;;17.52;10.27;;;;;;;6.37;100.00;99245.59;10531871;28;20055;-78
2023/11/13 10:54:35;;;;;;;17.98;10.18;;;;;;;6.55;100.00;99239.72;10531028;28;20116;-79
2023/11/13 10:59:39;;;;;;;18.70;10.13;;;;;;;6.71;100.00;99226.78;10531148;28;20123;-79
2023/11/13 11:04:46;;;;;;;15.88;8.93;;;;;;;6.67;100.00;99195.19;10523197;28;20670;-80
2023/11/13 11:09:51;;;;;;;18.13;10.15;;;;;;;6.73;100.00;99181.31;10526652;28;20041;-78
2023/11/13 11:15:11;;;;;;;21.33;10.60;;;;;;;6.59;100.00;99163.78;10524395;28;20480;-79
2023/11/13 11:20:23;;;;;;;19.27;10.77;;;;;;;6.61;100.00;99164.53;10530963;28;20043;-79
2023/11/13 11:25:44;;;;;;;17.45;10.05;;;;;;;6.56;100.00;99159.56;10531850;28;20035;-78
2023/11/13 11:30:48;;;;;;;15.23;8.88;;;;;;;6.72;100.00;99142.25;10524495;28;20131;-79
2023/11/13 11:35:52;;;;;;;24.98;9.95;;;;;;;6.79;100.00;99138.94;10518627;28;20116;-80
2023/11/13 11:40:56;;;;;;;15.00;8.50;;;;;;;6.81;100.00;99115.63;10529377;28;20044;-81
2023/11/13 11:46:04;;;;;;;16.15;9.13;;;;;;;6.84;100.00;99099.34;10534461;28;20048;-79
2023/11/13 11:51:19;;;;;;;13.43;8.18;;;;;;;6.90;100.00;99083.81;10529824;28;20044;-80
2023/11/13 11:56:27;;;;;;;17.73;8.88;;;;;;;6.82;100.00;99065.75;10527331;28;20043;-81
2023/11/13 12:01:31;;;;;;;17.90;9.35;;;;;;;6.82;100.00;99044.41;10526063;28;20479;-80
2023/11/13 12:06:35;;;;;;;21.38;10.43;;;;;;;6.83;100.00;99022.94;10521084;28;20037;-80
2023/11/13 12:11:38;;;;;;;17.70;10.48;;;;;;;6.94;100.00;99014.03;10533357;28;20147;-79
2023/11/13 12:16:43;;;;;;;14.38;10.13;;;;;;;6.93;100.00;98995.47;10539798;28;20059;-76
2023/11/13 12:21:46;;;;;;;20.90;12.60;;;;;;;6.82;100.00;98996.38;10539759;28;20041;-80
2023/11/13 12:26:49;;;;;;;23.27;11.98;;;;;;;6.87;100.00;98978.16;10534054;28;20074;-80
2023/11/13 12:31:57;;;;;;;16.75;9.88;;;;;;;6.93;100.00;98966.09;10537821;28;20047;-79
2023/11/13 12:37:00;;;;;;;11.07;6.85;;;;;;;7.06;100.00;98953.34;10533529;28;20036;-80
2023/11/13 12:42:03;;;;;;;13.80;6.45;;;;;;;7.23;100.00;98931.31;10518896;28;20047;-80
2023/11/13 12:47:09;;;;;;;10.65;6.40;;;;;;;7.18;100.00;98908.69;10535096;28;20028;-80
2023/11/13 12:52:16;;;;;;;10.48;5.80;;;;;;;7.18;100.00;98887.31;10480843;28;20037;-79
2023/11/13 12:57:19;;;;;;;11.63;4.75;;;;;;;7.11;100.00;98875.53;10411841;28;20036;-81
2023/11/13 13:02:23;;;;;;;5.43;3.38;;;;;;;7.05;100.00;98858.22;10411738;28;21537;-80
2023/11/13 13:07:26;;;;;;;3.38;2.50;;;;;;;7.16;100.00;98842.06;10440585;28;20053;-82
2023/11/13 13:12:31;;;;;;;6.30;3.40;;;;;;;7.15;100.00;98826.19;10423862;28;20057;-82
2023/11/13 13:17:38;;;;;;;6.28;4.28;;;;;;;7.10;100.00;98802.56;10421826;28;20106;-79
2023/11/13 13:22:42;;;;;;;10.65;6.55;;;;;;;7.17;100.00;98784.16;10426020;28;20048;-81
2023/11/13 13:27:46;;;;;;;5.75;5.18;;;;;;;7.17;100.00;98760.13;10421323;28;20154;-80
2023/11/13 13:32:51;;;;;;;12.23;6.10;;;;;;;6.95;100.00;98721.22;10420743;28;20051;-81
2023/11/13 13:37:54;;;;;;;8.75;4.72;;;;;;;7.00;100.00;98685.13;10419817;28;20424;-80
2023/11/13 13:43:00;;;;;;;6.88;4.00;;;;;;;6.86;100.00;98664.19;10436317;28;20045;-81
2023/11/13 13:48:04;;;;;;;7.43;4.32;;;;;;;7.08;100.00;98619.50;10421274;28;20048;-83
2023/11/13 13:53:08;;;;;;;5.53;3.30;;;;;;;6.95;100.00;98603.78;10426277;28;20059;-82
2023/11/13 13:58:12;;;;;;;4.85;3.63;;;;;;;7.11;100.00;98614.69;10464403;28;20047;-80
2023/11/13 14:03:16;;;;;;;5.68;3.35;;;;;;;7.16;100.00;98582.19;10446598;28;20041;-80
2023/11/13 14:08:19;;;;;;;5.75;4.07;;;;;;;7.30;100.00;98572.88;10428687;28;20506;-82
2023/11/13 14:13:24;;;;;;;4.60;4.18;;;;;;;7.40;100.00;98611.06;10424455;28;20052;-79
2023/11/13 14:18:31;;;;;;;11.85;3.50;;;;;;;7.59;100.00;98635.00;10417406;28;20049;-79
2023/11/13 14:23:34;;;;;;;9.77;4.65;;;;;;;7.52;100.00;98620.59;10423291;28;20053;-80
2023/11/13 14:28:37;;;;;;;12.20;6.00;;;;;;;7.60;100.00;98598.47;10420598;28;20146;-79
2023/11/13 14:33:42;;;;;;;7.63;3.58;;;;;;;7.73;100.00;98566.88;10417992;28;20059;-81
2023/11/13 14:38:48;;;;;;;6.07;4.15;;;;;;;7.64;100.00;98539.22;10412534;28;20052;-83
2023/11/13 14:43:51;;;;;;;5.15;4.45;;;;;;;7.75;100.00;98527.47;10441169;28;20056;-78
2023/11/13 14:48:56;;;;;;;6.35;3.75;;;;;;;8.33;100.00;98552.91;10434871;28;20138;-80
2023/11/13 14:54:00;;;;;;;7.72;3.70;;;;;;;8.68;100.00;98548.53;10423029;28;20063;-80
2023/11/13 14:59:03;;;;;;;8.32;3.90;;;;;;;8.95;100.00;98510.03;10389302;28;20053;-78
2023/11/13 15:04:11;;;;;;;4.05;2.70;;;;;;;9.12;100.00;98532.38;10402003;28;20604;-81
2023/11/13 15:09:16;;;;;;;1.63;1.42;;;;;;;9.25;100.00;98525.59;10405840;28;20112;-80
2023/11/13 15:14:19;;;;;;;6.55;2.42;;;;;;;9.39;100.00;98508.06;10418900;28;20051;-80
2023/11/13 15:19:23;;;;;;;4.15;2.08;;;;;;;9.80;100.00;98493.91;10412605;28;20522;-79
2023/11/13 15:24:27;;;;;;;3.80;2.00;;;;;;;9.84;100.00;98480.00;10418045;28;20944;-79
2023/11/13 15:29:30;;;;;;;8.98;1.95;;;;;;;9.98;100.00;98486.56;10417303;28;20056;-82
2023/11/13 15:34:34;;;;;;;1.73;1.58;;;;;;;10.09;100.00;98480.03;10410873;28;20048;-80
2023/11/13 15:39:39;;;;;;;2.67;2.30;;;;;;;10.31;100.00;98498.19;10411680;28;21293;-80
2023/11/13 15:44:42;;;;;;;2.78;2.20;;;;;;;10.39;100.00;98468.66;10407632;28;20044;-81
2023/11/13 15:49:46;;;;;;;3.03;1.92;;;;;;;10.36;100.00;98466.28;10413618;28;20079;-81
2023/11/13 15:54:49;;;;;;;2.60;2.38;;;;;;;10.33;100.00;98466.63;10403000;28;20056;-79
2023/11/13 15:59:52;;;;;;;3.60;2.80;;;;;;;10.42;100.00;98466.59;10416032;28;20098;-82
2023/11/13 16:04:58;;;;;;;5.35;2.85;;;;;;;10.36;100.00;98482.38;10413337;28;20060;-82
2023/11/13 16:10:01;;;;;;;5.00;3.45;;;;;;;10.40;100.00;98464.13;10397936;28;20424;-83
2023/11/13 16:15:05;;;;;;;3.95;2.50;;;;;;;10.36;100.00;98449.34;10407726;28;20049;-81
2023/11/13 16:20:18;;;;;;;3.00;1.80;;;;;;;10.29;100.00;98425.03;10408207;28;20041;-79
2023/11/13 16:25:21;;;;;;;2.30;1.45;;;;;;;10.37;100.00;98445.66;10415510;28;20041;-81
2023/11/13 16:30:30;;;;;;;6.38;1.75;;;;;;;10.25;100.00;98476.53;10425249;28;21027;-80
2023/11/13 16:35:35;;;;;;;1.50;1.02;;;;;;;10.31;100.00;98476.72;10424454;28;20690;-80
2023/11/13 16:40:38;;;;;;;1.90;1.00;;;;;;;10.34;100.00;98441.47;10423782;28;20045;-80
2023/11/13 16:45:46;;;;;;;2.60;1.42;;;;;;;10.57;100.00;98462.22;10411884;28;20063;-81
2023/11/13 16:50:52;;;;;;;1.52;0.65;;;;;;;10.65;100.00;98480.19;10418546;28;20053;-80
2023/11/13 16:55:58;;;;;;;1.63;1.08;;;;;;;10.46;100.00;98470.66;10416761;28;20054;-82
2023/11/13 17:01:01;;;;;;;1.95;0.93;;;;;;;10.55;100.00;98483.03;10409325;28;20056;-81
2023/11/13 17:06:09;;;;;;;3.53;1.70;;;;;;;10.65;100.00;98481.00;10400515;28;20050;-79
2023/11/13 17:11:13;;;;;;;2.90;1.77;;;;;;;10.92;100.00;98505.78;10434612;28;20056;-79
2023/11/13 17:16:17;;;;;;;3.72;2.00;;;;;;;10.87;100.00;98505.47;10421593;28;20056;-78
2023/11/13 17:21:21;;;;;;;3.90;2.42;;;;;;;10.75;100.00;98521.94;10419918;28;20061;-81
2023/11/13 17:26:25;;;;;;;3.58;2.72;;;;;;;11.15;100.00;98533.59;10421748;28;20128;-80
2023/11/13 17:31:30;;;;;;;3.65;2.97;;;;;;;11.12;100.00;98531.28;10412356;28;20045;-81
2023/11/13 17:36:34;;;;;;;5.90;3.05;;;;;;;11.28;100.00;98546.50;10451219;28;20064;-80
2023/11/13 17:41:37;;;;;;;8.82;2.67;;;;;;;10.83;100.00;98542.56;10456741;28;20045;-82
2023/11/13 17:46:40;;;;;;;6.90;2.88;;;;;;;10.88;100.00;98537.50;10423485;28;20052;-80
2023/11/13 17:51:44;;;;;;;10.77;3.00;;;;;;;11.02;100.00;98555.59;10410221;28;20048;-80
2023/11/13 17:56:50;;;;;;;14.48;2.70;;;;;;;11.04;100.00;98563.50;10389920;28;72351;-80
2023/11/13 18:01:53;;;;;;;21.92;3.63;;;;;;;11.19;100.00;98566.34;10424011;28;20044;-78
2023/11/13 18:06:58;;;;;;;15.00;3.60;;;;;;;10.95;100.00;98570.75;10399906;28;20060;-78
2023/11/13 18:12:00;;;;;;;14.90;3.20;;;;;;;11.25;98.32;98588.00;10409942;28;20056;-80
2023/11/13 18:17:03;;;;;;;14.75;3.00;;;;;;;11.09;99.60;98590.69;10406535;28;20040;-80
2023/11/13 18:22:09;;;;;;;16.42;4.15;;;;;;;11.27;97.08;98580.63;10409858;28;20440;-81
2023/11/13 18:27:12;;;;;;;17.30;3.75;;;;;;;11.15;94.32;98575.78;10404472;28;20048;-81
2023/11/13 18:32:20;;;;;;;17.83;5.28;;;;;;;11.25;92.26;98568.34;10417018;28;20088;-80
2023/11/13 18:37:30;;;;;;;19.38;3.60;;;;;;;10.98;91.54;98588.38;10401793;28;20060;-78
2023/11/13 18:42:33;;;;;;;15.50;3.63;;;;;;;10.93;91.45;98606.84;10405725;28;20080;-79
2023/11/13 18:47:36;;;;;;;16.50;3.33;;;;;;;11.35;89.82;98629.97;10396778;28;20530;-81
2023/11/13 18:52:42;;;;;;;18.98;4.50;;;;;;;11.01;94.08;98625.63;10395891;28;20049;-82
2023/11/13 18:57:45;;;;;;;12.07;3.67;;;;;;;10.91;96.02;98635.72;10398640;28;20045;-79
2023/11/13 19:02:48;;;;;;;20.95;3.42;;;;;;;10.82;97.86;98646.47;10387989;28;20045;-80
2023/11/13 19:07:53;;;;;;;12.05;2.90;;;;;;;10.44;87.75;98607.69;10409931;28;20055;-79
2023/11/13 19:12:57;;;;;;;16.13;3.30;;;;;;;10.64;85.17;98653.00;10398623;28;20045;-82
2023/11/13 19:18:00;;;;;;;14.20;2.63;;;;;;;11.01;84.29;98653.34;10398358;28;20103;-79
2023/11/13 19:23:05;;;;;;;23.45;4.65;;;;;;;10.71;83.95;98659.38;10408765;28;20049;-78
2023/11/13 19:28:09;;;;;;;18.67;4.10;;;;;;;10.64;82.28;98645.81;10414472;28;20338;-80
2023/11/13 19:33:14;;;;;;;14.57;3.20;;;;;;;10.73;82.04;98676.19;10411646;28;20497;-80
2023/11/13 19:38:19;;;;;;;11.95;4.38;;;;;;;10.74;82.37;98699.34;10412006;28;20087;-78
2023/11/13 19:43:21;;;;;;;16.45;2.90;;;;;;;10.81;84.83;98685.06;10423523;28;20045;-77
2023/11/13 19:48:25;;;;;;;19.48;4.00;;;;;;;10.50;89.34;98695.59;10417410;28;20513;-78
2023/11/13 19:53:33;;;;;;;19.58;3.10;;;;;;;10.86;86.90;98694.47;10407744;28;20144;-80
2023/11/13 19:58:36;;;;;;;21.13;4.00;;;;;;;10.65;86.58;98729.88;10409862;28;21208;-80
2023/11/13 20:03:39;;;;;;;19.60;3.80;;;;;;;10.55;85.78;98733.53;10410400;28;20279;-80
2023/11/13 20:08:44;;;;;;;15.23;4.43;;;;;;;10.34;84.81;98735.84;10408959;28;20099;-80
2023/11/13 20:13:47;;;;;;;16.83;3.42;;;;;;;10.34;83.10;98743.91;10407197;28;20048;-80
2023/11/13 20:18:51;;;;;;;20.75;3.63;;;;;;;10.30;83.09;98738.00;10421655;28;20068;-78
2023/11/13 20:23:55;;;;;;;14.90;2.13;;;;;;;10.20;82.49;98744.50;10391738;28;20042;-77
2023/11/13 20:28:58;;;;;;;20.77;3.38;;;;;;;10.16;83.20;98752.88;10398767;28;20080;-78
2023/11/13 20:34:02;;;;;;;18.83;3.53;;;;;;;9.94;83.57;98743.53;10415335;28;20053;-80
2023/11/13 20:39:07;;;;;;;16.67;2.53;;;;;;;10.03;82.94;98784.66;10404504;28;20141;-80
2023/11/13 20:44:11;;;;;;;11.57;2.78;;;;;;;9.90;83.09;98781.56;10422739;28;20073;-79
2023/11/13 20:49:14;;;;;;;17.95;3.17;;;;;;;9.97;83.50;98779.09;10423895;28;20136;-80
2023/11/13 20:54:18;;;;;;;22.83;4.20;;;;;;;9.58;84.67;98800.94;10427394;28;20045;-78
2023/11/13 20:59:23;;;;;;;17.30;3.70;;;;;;;9.67;84.20;98791.97;10416045;28;20079;-79
2023/11/13 21:04:26;;;;;;;21.23;3.47;;;;;;;9.61;83.60;98797.97;10416577;28;20052;-82
2023/11/13 21:09:30;;;;;;;22.35;3.08;;;;;;;9.71;83.40;98804.06;10417558;28;20454;-77
2023/11/13 21:14:34;;;;;;;18.42;3.00;;;;;;;9.81;82.96;98809.31;10442036;28;20049;-79
2023/11/13 21:19:37;;;;;;;26.58;3.92;;;;;;;9.50;82.77;98805.25;10428462;28;20526;-79
2023/11/13 21:24:42;;;;;;;22.83;2.90;;;;;;;9.57;82.66;98808.16;10415257;28;20052;-80
2023/11/13 21:29:45;;;;;;;22.33;3.65;;;;;;;9.79;82.18;98812.16;10424996;28;20120;-80
2023/11/13 21:34:48;;;;;;;12.02;2.58;;;;;;;9.68;82.07;98812.41;10409579;28;20052;-77
2023/11/13 21:39:53;;;;;;;19.70;3.42;;;;;;;9.77;82.34;98832.09;10399541;28;21130;-78
2023/11/13 21:44:56;;;;;;;19.42;3.78;;;;;;;9.71;82.42;98818.31;10426547;28;20049;-78
2023/11/13 21:49:59;;;;;;;19.13;3.75;;;;;;;9.78;81.88;98820.34;10417319;28;20564;-77
2023/11/13 21:55:05;;;;;;;18.90;3.50;;;;;;;9.86;80.94;98825.81;10422630;28;20060;-79
2023/11/13 22:00:10;;;;;;;14.48;3.10;;;;;;;9.73;81.84;98842.25;10392224;28;20045;-79
2023/11/13 22:05:13;;;;;;;24.55;3.88;;;;;;;10.03;80.84;98845.53;10386652;28;20056;-78
2023/11/13 22:10:17;;;;;;;19.75;4.72;;;;;;;9.67;83.00;98834.84;10410850;28;20117;-77
2023/11/13 22:15:21;;;;;;;16.63;2.72;;;;;;;9.70;82.52;98837.22;10431067;28;20053;-77
2023/11/13 22:20:27;;;;;;;33.17;4.30;;;;;;;9.73;83.23;98843.09;10410667;28;20103;-77
2023/11/13 22:25:32;;;;;;;23.67;3.40;;;;;;;9.79;82.61;98838.13;10426851;28;20072;-77
2023/11/13 22:30:37;;;;;;;12.20;2.85;;;;;;;9.79;82.40;98847.03;10435278;28;20080;-77
2023/11/13 22:35:40;;;;;;;22.38;4.50;;;;;;;9.65;83.21;98858.28;10407843;28;20057;-81
2023/11/13 22:40:46;;;;;;;10.70;2.55;;;;;;;9.64;83.09;98848.56;10398641;28;20053;-80
2023/11/13 22:45:49;;;;;;;26.73;4.43;;;;;;;9.84;81.84;98859.94;10401756;28;20120;-79
2023/11/13 22:50:52;;;;;;;27.25;3.92;;;;;;;9.99;81.61;98854.91;10408103;28;20052;-79
2023/11/13 22:55:56;;;;;;;25.92;3.72;;;;;;;9.85;81.94;98846.38;10403767;28;20059;-78
2023/11/13 23:01:00;;;;;;;25.13;4.22;;;;;;;9.77;81.88;98840.13;10410198;28;20056;-78
2023/11/13 23:06:03;;;;;;;19.17;3.25;;;;;;;9.77;81.85;98840.13;10398176;28;21205;-79
2023/11/13 23:11:08;;;;;;;21.52;3.58;;;;;;;9.74;82.43;98860.06;10399483;28;20053;-79
2023/11/13 23:16:23;;;;;;;17.50;3.08;;;;;;;9.82;82.51;98860.13;10367948;28;20042;-78
2023/11/13 23:21:28;;;;;;;18.23;3.88;;;;;;;9.76;81.81;98846.47;10362484;28;20120;-78
2023/11/13 23:26:33;;;;;;;16.50;2.42;;;;;;;9.55;83.75;98836.94;10349278;28;20064;-77
2023/11/13 23:31:36;;;;;;;17.20;3.17;;;;;;;9.74;82.50;98876.16;10385507;28;20053;-78